createdAt,value
2022-09-25T00:02:08.969Z,33.63
2022-09-25T00:04:39.639Z,54.40
2022-09-25T00:07:08.399Z,38.85
2022-09-25T00:09:36.729Z,36.65
2022-09-25T00:12:05.878Z,33.13
2022-09-25T00:14:34.746Z,39.03
2022-09-25T00:17:03.758Z,35.50
2022-09-25T00:19:50.099Z,27.60
2022-09-25T00:22:21.356Z,32.78
2022-09-25T00:24:50.825Z,28.85
2022-09-25T00:27:19.311Z,55.58
2022-09-25T00:29:48.903Z,45.58
2022-09-25T00:32:17.264Z,70.07
2022-09-25T00:34:47.162Z,38.17
2022-09-25T00:37:15.466Z,40.03
2022-09-25T00:39:46.036Z,31.55
2022-09-25T00:42:14.532Z,35.83
2022-09-25T00:44:56.954Z,37.40
2022-09-25T00:47:42.890Z,44.65
2022-09-25T00:50:32.816Z,43.67
2022-09-25T00:53:23.042Z,38.15
2022-09-25T00:55:55.497Z,40.72
2022-09-25T00:58:26.954Z,47.88
2022-09-25T01:00:56.064Z,44.28
2022-09-25T01:03:25.992Z,48.42
2022-09-25T01:05:56.579Z,38.70
2022-09-25T01:08:28.268Z,45.65
2022-09-25T01:10:59.366Z,45.60
2022-09-25T01:13:29.799Z,50.92
2022-09-25T01:16:06.138Z,36.75
2022-09-25T01:18:45.205Z,34.35
2022-09-25T01:21:23.250Z,56.22
2022-09-25T01:24:12.445Z,53.17
2022-09-25T01:27:21.385Z,40.50
2022-09-25T01:29:57.565Z,80.78
2022-09-25T01:32:34.595Z,38.05
2022-09-25T01:35:09.715Z,58.20
2022-09-25T01:37:44.637Z,54.03
2022-09-25T01:40:18.817Z,58.75
2022-09-25T01:42:53.034Z,43.58
2022-09-25T01:45:28.922Z,101.70
2022-09-25T01:48:01.415Z,82.18
2022-09-25T01:50:35.301Z,35.85
2022-09-25T01:53:09.311Z,38.13
2022-09-25T01:55:45.070Z,34.28
2022-09-25T01:58:18.207Z,29.90
2022-09-25T02:00:54.022Z,29.23
2022-09-25T02:03:27.620Z,33.47
2022-09-25T02:06:00.857Z,31.02
2022-09-25T02:08:32.697Z,35.42
2022-09-25T02:11:04.020Z,34.58
2022-09-25T02:13:40.711Z,37.50
2022-09-25T02:16:13.455Z,32.10
2022-09-25T02:19:00.228Z,38.13
2022-09-25T02:21:38.343Z,37.55
2022-09-25T02:24:14.422Z,34.67
2022-09-25T02:26:43.152Z,37.90
2022-09-25T02:29:13.239Z,76.93
2022-09-25T02:31:46.102Z,46.20
2022-09-25T02:34:15.543Z,52.53
2022-09-25T02:36:44.925Z,61.10
2022-09-25T02:39:18.511Z,51.05
2022-09-25T02:42:10.654Z,43.83
2022-09-25T02:44:51.267Z,38.83
2022-09-25T02:47:32.739Z,40.22
2022-09-25T02:50:10.370Z,40.13
2022-09-25T02:52:48.571Z,28.25
2022-09-25T02:55:28.272Z,52.75
2022-09-25T02:58:01.272Z,59.22
2022-09-25T03:00:30.999Z,50.80
2022-09-25T03:03:03.961Z,70.10
2022-09-25T03:05:33.052Z,52.20
2022-09-25T03:08:19.273Z,51.33
2022-09-25T03:10:48.878Z,51.72
2022-09-25T03:13:19.736Z,46.95
2022-09-25T03:15:52.794Z,49.55
2022-09-25T03:18:22.616Z,48.83
2022-09-25T03:20:51.722Z,42.55
2022-09-25T03:23:20.551Z,42.22
2022-09-25T03:25:50.494Z,48.05
2022-09-25T03:28:19.575Z,45.85
2022-09-25T03:31:01.302Z,47.15
2022-09-25T03:33:36.477Z,51.40
2022-09-25T03:36:09.978Z,51.30
2022-09-25T03:38:38.781Z,47.33
2022-09-25T03:41:10.137Z,51.00
2022-09-25T03:43:40.294Z,51.20
2022-09-25T03:46:12.181Z,53.97
2022-09-25T03:48:43.311Z,59.13
2022-09-25T03:51:12.258Z,59.08
2022-09-25T03:53:42.023Z,54.15
2022-09-25T03:56:12.901Z,64.80
2022-09-25T03:58:42.422Z,61.08
2022-09-25T04:01:11.764Z,52.67
2022-09-25T04:03:47.756Z,60.47
2022-09-25T04:06:18.410Z,54.03
2022-09-25T04:08:48.930Z,54.75
2022-09-25T04:11:19.218Z,54.90
2022-09-25T04:13:48.630Z,53.70
2022-09-25T04:16:18.318Z,55.45
2022-09-25T04:18:48.109Z,54.28
2022-09-25T04:21:17.648Z,56.50
2022-09-25T04:24:06.584Z,55.25
2022-09-25T04:26:36.192Z,58.78
2022-09-25T04:29:04.789Z,51.75
2022-09-25T04:31:34.158Z,60.10
2022-09-25T04:34:03.001Z,57.30
2022-09-25T04:36:32.005Z,58.10
2022-09-25T04:39:00.279Z,65.32
2022-09-25T04:41:29.438Z,50.15
2022-09-25T04:43:57.755Z,55.22
2022-09-25T04:46:27.005Z,45.47
2022-09-25T04:48:55.358Z,41.45
2022-09-25T04:51:25.924Z,48.65
2022-09-25T04:53:54.660Z,57.85
2022-09-25T04:56:23.174Z,57.65
2022-09-25T04:58:51.896Z,63.72
2022-09-25T05:01:21.683Z,58.65
2022-09-25T05:03:54.135Z,64.15
2022-09-25T05:06:22.982Z,58.03
2022-09-25T05:08:53.515Z,61.25
2022-09-25T05:11:22.970Z,52.65
2022-09-25T05:13:51.819Z,55.88
2022-09-25T05:16:21.592Z,101.70
2022-09-25T05:18:50.038Z,55.67
2022-09-25T05:21:18.879Z,55.60
2022-09-25T05:23:47.358Z,63.20
2022-09-25T05:26:17.370Z,49.05
2022-09-25T05:28:50.690Z,41.55
2022-09-25T05:31:19.369Z,87.95
2022-09-25T05:33:48.746Z,59.60
2022-09-25T05:36:18.800Z,55.28
2022-09-25T05:38:48.663Z,63.33
2022-09-25T05:41:19.160Z,68.93
2022-09-25T05:43:48.096Z,55.67
2022-09-25T05:46:16.991Z,64.45
2022-09-25T05:48:46.407Z,56.58
2022-09-25T05:51:15.552Z,57.83
2022-09-25T05:53:44.464Z,51.75
2022-09-25T05:56:12.755Z,54.28
2022-09-25T05:58:43.126Z,55.75
2022-09-25T06:01:11.773Z,56.28
2022-09-25T06:03:40.085Z,61.13
2022-09-25T06:06:09.204Z,50.00
2022-09-25T06:08:37.490Z,52.45
2022-09-25T06:11:08.213Z,57.55
2022-09-25T06:13:37.014Z,65.10
2022-09-25T06:16:15.485Z,52.53
2022-09-25T06:18:44.345Z,51.58
2022-09-25T06:21:13.652Z,50.13
2022-09-25T06:23:44.272Z,44.65
2022-09-25T06:26:12.612Z,54.83
2022-09-25T06:28:41.302Z,51.38
2022-09-25T06:31:10.968Z,47.67
2022-09-25T06:33:39.809Z,47.13
2022-09-25T06:36:08.190Z,47.00
2022-09-25T06:38:37.246Z,49.83
2022-09-25T06:41:06.607Z,46.28
2022-09-25T06:43:35.758Z,47.15
2022-09-25T06:46:04.677Z,79.13
2022-09-25T06:48:34.348Z,76.80
2022-09-25T06:51:03.305Z,57.40
2022-09-25T06:53:31.664Z,63.83
2022-09-25T06:56:01.427Z,84.32
2022-09-25T06:58:31.877Z,85.75
2022-09-25T07:01:00.181Z,75.55
2022-09-25T07:03:46.836Z,65.53
2022-09-25T07:06:18.823Z,92.78
2022-09-25T07:08:49.431Z,68.78
2022-09-25T07:11:20.337Z,53.42
2022-09-25T07:13:55.574Z,74.72
2022-09-25T07:16:25.604Z,55.95
2022-09-25T07:18:55.870Z,74.65
2022-09-25T07:21:27.759Z,62.08
2022-09-25T07:23:58.964Z,60.65
2022-09-25T07:26:29.876Z,59.17
2022-09-25T07:29:00.920Z,75.90
2022-09-25T07:31:31.892Z,62.00
2022-09-25T07:34:02.920Z,68.10
2022-09-25T07:36:33.392Z,55.10
2022-09-25T07:39:02.095Z,63.53
2022-09-25T07:41:30.406Z,59.15
2022-09-25T07:46:49.097Z,54.97
2022-09-25T07:49:18.387Z,54.20
2022-09-25T07:51:48.535Z,59.10
2022-09-25T07:54:16.836Z,50.80
2022-09-25T07:56:47.087Z,50.90
2022-09-25T07:59:15.760Z,49.55
2022-09-25T08:01:47.285Z,59.28
2022-09-25T08:04:19.943Z,51.00
2022-09-25T08:06:50.225Z,53.60
2022-09-25T08:09:18.553Z,50.33
2022-09-25T08:11:47.832Z,46.38
2022-09-25T08:14:16.447Z,54.28
2022-09-25T08:16:48.067Z,52.78
2022-09-25T08:19:18.392Z,58.80
2022-09-25T08:21:47.315Z,48.72
2022-09-25T08:24:17.379Z,48.63
2022-09-25T08:26:47.461Z,42.30
2022-09-25T08:29:16.367Z,51.45
2022-09-25T08:31:44.770Z,46.20
2022-09-25T08:34:39.621Z,52.72
2022-09-25T08:37:04.644Z,50.17
2022-09-25T08:39:34.257Z,49.33
2022-09-25T08:42:04.264Z,49.53
2022-09-25T08:44:38.329Z,44.35
2022-09-25T08:47:31.942Z,50.65
2022-09-25T08:50:05.614Z,49.33
2022-09-25T08:52:36.378Z,43.65
2022-09-25T08:55:13.939Z,50.42
2022-09-25T08:58:05.578Z,41.47
2022-09-25T09:00:34.089Z,44.08
2022-09-25T09:03:02.862Z,43.10
2022-09-25T09:05:35.151Z,43.15
2022-09-25T09:08:06.764Z,40.80
2022-09-25T09:10:42.194Z,41.40
2022-09-25T09:13:19.645Z,36.90
2022-09-25T09:15:54.356Z,36.50
2022-09-25T09:18:25.076Z,39.20
2022-09-25T09:20:57.777Z,40.67
2022-09-25T09:23:34.239Z,36.58
2022-09-25T09:26:07.274Z,36.45
2022-09-25T09:28:57.083Z,35.67
2022-09-25T09:31:32.037Z,36.45
2022-09-25T09:34:17.007Z,38.90
2022-09-25T09:36:52.935Z,37.58
2022-09-25T09:39:28.375Z,33.35
2022-09-25T09:42:06.797Z,41.35
2022-09-25T09:44:51.313Z,39.53
2022-09-25T09:47:40.390Z,40.25
2022-09-25T09:50:41.815Z,38.08
2022-09-25T09:53:21.060Z,38.08
2022-09-25T09:55:54.271Z,36.70
2022-09-25T09:58:29.784Z,36.10
2022-09-25T10:01:15.955Z,35.58
2022-09-25T10:03:57.117Z,36.58
2022-09-25T10:06:31.323Z,36.08
2022-09-25T10:09:00.382Z,35.92
2022-09-25T10:11:32.659Z,36.25
2022-09-25T10:14:05.846Z,37.47
2022-09-25T10:16:35.229Z,36.88
2022-09-25T10:19:08.195Z,35.70
2022-09-25T10:21:42.811Z,35.40
2022-09-25T10:24:11.778Z,35.60
2022-09-25T10:26:41.569Z,34.70
2022-09-25T10:29:28.459Z,29.75
2022-09-25T10:32:01.360Z,26.30
2022-09-25T10:34:31.273Z,32.70
2022-09-25T10:37:22.281Z,33.90
2022-09-25T10:40:03.135Z,33.78
2022-09-25T10:42:37.651Z,29.30
2022-09-25T10:45:31.282Z,30.05
2022-09-25T10:48:17.899Z,31.20
2022-09-25T10:50:47.944Z,27.13
2022-09-25T10:53:34.194Z,29.90
2022-09-25T10:56:06.260Z,27.58
2022-09-25T10:58:41.285Z,31.90
2022-09-25T11:01:13.442Z,25.17
2022-09-25T11:03:49.358Z,24.48
2022-09-25T11:06:21.984Z,24.67
2022-09-25T11:09:04.529Z,23.52
2022-09-25T11:11:34.391Z,23.00
2022-09-25T11:14:06.402Z,21.63
2022-09-25T11:16:51.580Z,22.33
2022-09-25T11:19:26.921Z,19.95
2022-09-25T11:22:02.752Z,19.48
2022-09-25T11:24:43.298Z,20.42
2022-09-25T11:27:15.828Z,21.55
2022-09-25T11:29:54.960Z,21.23
2022-09-25T11:32:32.750Z,21.73
2022-09-25T11:35:26.553Z,20.92
2022-09-25T11:38:05.205Z,19.08
2022-09-25T11:40:58.486Z,17.90
2022-09-25T11:43:39.704Z,18.17
2022-09-25T11:46:24.214Z,16.38
2022-09-25T11:49:11.392Z,15.32
2022-09-25T11:52:06.094Z,15.23
2022-09-25T11:54:49.316Z,15.55
2022-09-25T11:57:22.983Z,14.85
2022-09-25T12:00:06.556Z,17.85
2022-09-25T12:02:50.305Z,17.02
2022-09-25T12:05:34.339Z,15.48
2022-09-25T12:08:22.456Z,14.18
2022-09-25T12:10:58.643Z,11.40
2022-09-25T12:13:42.243Z,14.27
2022-09-25T12:16:19.651Z,14.75
2022-09-25T12:19:26.528Z,12.30
2022-09-25T12:22:03.226Z,12.52
2022-09-25T12:24:44.628Z,13.25
2022-09-25T12:27:21.504Z,13.98
2022-09-25T12:30:06.811Z,14.70
2022-09-25T12:32:54.678Z,12.13
2022-09-25T12:35:36.227Z,13.45
2022-09-25T12:38:14.102Z,10.82
2022-09-25T12:40:47.353Z,12.55
2022-09-25T12:43:24.483Z,13.48
2022-09-25T12:46:00.235Z,13.10
2022-09-25T12:48:37.837Z,12.57
2022-09-25T12:51:13.135Z,13.15
2022-09-25T12:53:49.009Z,9.13
2022-09-25T12:56:24.244Z,7.20
2022-09-25T12:59:03.714Z,7.88
2022-09-25T13:01:41.545Z,9.23
2022-09-25T13:04:24.231Z,9.82
2022-09-25T13:06:59.713Z,10.02
2022-09-25T13:09:36.748Z,9.82
2022-09-25T13:12:09.715Z,12.75
2022-09-25T13:14:45.922Z,9.32
2022-09-25T13:17:15.910Z,8.45
2022-09-25T13:19:46.863Z,8.52
2022-09-25T13:22:21.245Z,7.97
2022-09-25T13:24:57.651Z,11.48
2022-09-25T13:27:34.040Z,10.27
2022-09-25T13:30:06.681Z,10.77
2022-09-25T13:32:38.683Z,9.57
2022-09-25T13:35:23.012Z,12.02
2022-09-25T13:37:54.963Z,10.38
2022-09-25T13:40:43.898Z,10.20
2022-09-25T13:43:22.081Z,10.00
2022-09-25T13:46:24.571Z,9.55
2022-09-25T13:48:56.024Z,11.05
2022-09-25T13:51:34.932Z,11.35
2022-09-25T13:54:23.796Z,12.55
2022-09-25T13:56:54.230Z,11.68
2022-09-25T13:59:37.594Z,12.23
2022-09-25T14:02:38.464Z,10.75
2022-09-25T14:05:07.520Z,10.95
2022-09-25T14:07:37.225Z,12.20
2022-09-25T14:10:12.907Z,10.57
2022-09-25T14:12:48.362Z,10.65
2022-09-25T14:15:25.456Z,11.25
2022-09-25T14:17:56.426Z,11.85
2022-09-25T14:20:35.793Z,10.70
2022-09-25T14:23:07.991Z,9.77
2022-09-25T14:25:43.091Z,9.80
2022-09-25T14:28:23.041Z,9.75
2022-09-25T14:31:19.344Z,10.10
2022-09-25T14:34:13.819Z,11.30
2022-09-25T14:36:54.502Z,10.90
2022-09-25T14:39:30.279Z,10.63
2022-09-25T14:42:21.732Z,10.60
2022-09-25T14:45:15.484Z,10.07
2022-09-25T14:47:49.111Z,8.10
2022-09-25T14:50:22.641Z,9.23
2022-09-25T14:52:55.049Z,8.32
2022-09-25T14:55:25.223Z,8.07
2022-09-25T14:57:54.437Z,7.95
2022-09-25T15:00:26.040Z,9.95
2022-09-25T15:02:56.316Z,8.75
2022-09-25T15:05:35.584Z,10.02
2022-09-25T15:08:20.510Z,8.75
2022-09-25T15:10:49.335Z,10.07
2022-09-25T15:13:20.321Z,9.27
2022-09-25T15:16:12.597Z,8.90
2022-09-25T15:18:43.300Z,8.93
2022-09-25T15:21:26.770Z,10.13
2022-09-25T15:23:58.128Z,9.50
2022-09-25T15:26:28.558Z,10.73
2022-09-25T15:28:57.109Z,10.07
2022-09-25T15:31:27.715Z,10.82
2022-09-25T15:34:04.798Z,10.85
2022-09-25T15:36:35.231Z,9.40
2022-09-25T15:39:14.757Z,9.88
2022-09-25T15:41:44.007Z,12.82
2022-09-25T15:44:15.402Z,10.38
2022-09-25T15:47:08.534Z,9.65
2022-09-25T15:49:44.079Z,9.43
2022-09-25T15:52:20.686Z,10.63
2022-09-25T15:54:49.447Z,8.98
2022-09-25T15:57:26.530Z,7.63
2022-09-25T16:00:13.647Z,6.88
2022-09-25T16:03:08.110Z,7.13
2022-09-25T16:05:38.532Z,7.85
2022-09-25T16:08:29.599Z,7.57
2022-09-25T16:11:08.374Z,7.40
2022-09-25T16:13:40.975Z,7.45
2022-09-25T16:16:19.598Z,6.68
2022-09-25T16:18:51.122Z,6.95
2022-09-25T16:21:23.853Z,7.60
2022-09-25T16:23:56.135Z,7.93
2022-09-25T16:26:32.735Z,9.38
2022-09-25T16:29:05.928Z,11.63
2022-09-25T16:31:36.725Z,9.20
2022-09-25T16:34:11.049Z,8.60
2022-09-25T16:36:43.754Z,10.25
2022-09-25T16:39:37.464Z,11.52
2022-09-25T16:42:30.776Z,10.02
2022-09-25T16:45:15.239Z,9.20
2022-09-25T16:47:49.268Z,9.57
2022-09-25T16:50:21.728Z,14.13
2022-09-25T16:52:50.885Z,14.40
2022-09-25T16:55:22.964Z,14.38
2022-09-25T16:57:54.163Z,13.90
2022-09-25T17:00:26.013Z,15.45
2022-09-25T17:02:55.347Z,9.75
2022-09-25T17:05:27.620Z,10.20
2022-09-25T17:10:51.070Z,11.27
2022-09-25T17:16:17.707Z,13.48
2022-09-25T17:18:46.835Z,14.80
2022-09-25T17:21:19.638Z,13.23
2022-09-25T17:23:48.688Z,12.98
2022-09-25T17:26:20.483Z,14.90
2022-09-25T17:28:49.986Z,14.05
2022-09-25T17:31:21.218Z,10.95
2022-09-25T17:33:52.361Z,9.73
2022-09-25T17:36:22.158Z,9.82
2022-09-25T17:38:51.462Z,10.93
2022-09-25T17:41:23.005Z,10.63
2022-09-25T17:43:52.630Z,11.45
2022-09-25T17:46:22.697Z,10.82
2022-09-25T17:48:54.468Z,12.55
2022-09-25T17:51:27.697Z,10.70
2022-09-25T17:53:56.927Z,11.88
2022-09-25T17:56:28.546Z,9.48
2022-09-25T17:58:57.755Z,10.68
2022-09-25T18:01:33.195Z,11.73
2022-09-25T18:04:19.030Z,12.27
2022-09-25T18:06:48.732Z,13.13
2022-09-25T18:09:17.127Z,10.50
2022-09-25T18:11:46.530Z,12.98
2022-09-25T18:14:17.650Z,29.17
2022-09-25T18:16:46.792Z,49.92
2022-09-25T18:19:35.196Z,46.15
2022-09-25T18:22:25.220Z,29.40
2022-09-25T18:24:57.007Z,15.75
2022-09-25T18:27:27.554Z,16.40
2022-09-25T18:29:56.879Z,14.27
2022-09-25T18:32:26.087Z,18.77
2022-09-25T18:34:54.395Z,12.82
2022-09-25T18:37:25.410Z,12.75
2022-09-25T18:39:53.681Z,10.85
2022-09-25T18:42:23.790Z,12.77
2022-09-25T18:44:53.199Z,12.45
2022-09-25T18:47:22.707Z,11.40
2022-09-25T18:49:51.631Z,10.93
2022-09-25T18:52:21.672Z,10.32
2022-09-25T18:54:51.311Z,16.00
2022-09-25T18:57:22.201Z,17.75
2022-09-25T18:59:51.022Z,19.65
2022-09-25T19:02:21.283Z,16.40
2022-09-25T19:04:52.578Z,13.07
2022-09-25T19:07:20.870Z,11.90
2022-09-25T19:09:53.315Z,12.40
2022-09-25T19:12:22.470Z,13.82
2022-09-25T19:14:51.154Z,12.55
2022-09-25T19:17:20.555Z,12.23
2022-09-25T19:19:49.115Z,14.38
2022-09-25T19:22:21.008Z,13.45
2022-09-25T19:24:50.651Z,13.52
2022-09-25T19:27:21.766Z,13.82
2022-09-25T19:29:50.515Z,10.93
2022-09-25T19:32:21.906Z,14.20
2022-09-25T19:34:52.438Z,12.40
2022-09-25T19:37:24.024Z,15.18
2022-09-25T19:40:10.779Z,15.48
2022-09-25T19:42:40.877Z,14.77
2022-09-25T19:45:10.913Z,14.80
2022-09-25T19:47:39.217Z,11.15
2022-09-25T19:50:08.828Z,11.65
2022-09-25T19:52:38.276Z,15.50
2022-09-25T19:55:07.836Z,15.23
2022-09-25T19:57:36.767Z,11.98
2022-09-25T20:00:09.362Z,12.60
2022-09-25T20:02:39.437Z,14.68
2022-09-25T20:05:10.413Z,14.63
2022-09-25T20:07:40.591Z,10.98
2022-09-25T20:10:10.123Z,10.38
2022-09-25T20:12:38.568Z,10.10
2022-09-25T20:18:22.187Z,10.68
2022-09-25T20:20:50.510Z,9.48
2022-09-25T20:23:22.798Z,9.85
2022-09-25T20:25:51.704Z,9.73
2022-09-25T20:28:20.059Z,10.60
2022-09-25T20:30:50.155Z,13.50
2022-09-25T20:33:18.546Z,16.80
2022-09-25T20:35:47.473Z,12.43
2022-09-25T20:38:15.830Z,11.68
2022-09-25T20:40:44.665Z,13.57
2022-09-25T20:43:13.279Z,11.60
2022-09-25T20:45:41.573Z,12.20
2022-09-25T20:48:11.897Z,11.63
2022-09-25T20:50:40.230Z,10.05
2022-09-25T20:53:08.974Z,10.68
2022-09-25T20:55:40.286Z,11.60
2022-09-25T20:58:08.971Z,11.45
2022-09-25T21:00:37.810Z,12.15
2022-09-25T21:03:06.267Z,13.75
2022-09-25T21:05:39.804Z,13.48
2022-09-25T21:08:08.980Z,12.70
2022-09-25T21:10:40.305Z,10.48
2022-09-25T21:13:09.375Z,10.93
2022-09-25T21:15:37.675Z,11.23
2022-09-25T21:18:07.449Z,9.90
2022-09-25T21:20:36.641Z,11.15
2022-09-25T21:23:06.666Z,10.73
2022-09-25T21:25:35.391Z,10.07
2022-09-25T21:28:04.410Z,10.00
2022-09-25T21:30:33.807Z,10.50
2022-09-25T21:33:02.171Z,10.32
2022-09-25T21:35:31.720Z,11.75
2022-09-25T21:38:00.045Z,11.07
2022-09-25T21:40:30.482Z,10.98
2022-09-25T21:42:58.850Z,12.15
2022-09-25T21:45:27.519Z,10.32
2022-09-25T21:47:56.695Z,10.90
2022-09-25T21:50:25.123Z,10.10
2022-09-25T21:52:55.327Z,11.73
2022-09-25T21:55:24.374Z,9.98
2022-09-25T21:57:54.068Z,12.60
2022-09-25T22:00:22.982Z,11.68
2022-09-25T22:02:51.760Z,10.55
2022-09-25T22:05:21.917Z,10.60
2022-09-25T22:07:50.580Z,9.95
2022-09-25T22:10:19.323Z,10.73
2022-09-25T22:12:47.623Z,11.57
2022-09-25T22:15:18.414Z,11.93
2022-09-25T22:17:47.220Z,10.25
2022-09-25T22:20:16.058Z,10.85
2022-09-25T22:22:44.616Z,10.20
2022-09-25T22:25:13.351Z,11.45
2022-09-25T22:27:42.040Z,10.43
2022-09-25T22:30:11.959Z,10.73
2022-09-25T22:32:42.334Z,10.50
2022-09-25T22:35:10.642Z,11.32
2022-09-25T22:37:39.750Z,10.55
2022-09-25T22:40:08.909Z,10.48
2022-09-25T22:42:38.004Z,12.10
2022-09-25T22:45:07.024Z,10.90
2022-09-25T22:47:36.395Z,12.50
2022-09-25T22:50:07.302Z,11.43
2022-09-25T22:52:36.506Z,10.57
2022-09-25T22:55:05.245Z,10.80
2022-09-25T22:57:39.227Z,11.27
2022-09-25T23:00:09.853Z,9.68
2022-09-25T23:02:38.555Z,11.15
2022-09-25T23:05:09.628Z,10.63
2022-09-25T23:07:38.021Z,10.95
2022-09-25T23:10:08.328Z,11.15
2022-09-25T23:12:37.212Z,10.55
2022-09-25T23:15:06.652Z,13.02
2022-09-25T23:17:34.967Z,11.82
2022-09-25T23:20:04.137Z,11.90
2022-09-25T23:22:34.292Z,10.88
2022-09-25T23:25:02.606Z,12.35
2022-09-25T23:27:31.801Z,14.02
2022-09-25T23:30:00.221Z,12.77
2022-09-25T23:32:29.543Z,11.63
2022-09-25T23:34:57.858Z,11.18
2022-09-25T23:37:26.905Z,10.52
2022-09-25T23:39:57.162Z,12.15
2022-09-25T23:42:25.521Z,11.13
2022-09-25T23:44:54.583Z,11.32
2022-09-25T23:47:24.055Z,12.63
2022-09-25T23:49:53.049Z,11.20
2022-09-25T23:52:21.357Z,13.48
2022-09-25T23:54:50.567Z,10.27
2022-09-25T23:57:20.255Z,10.82
2022-09-25T23:59:49.557Z,11.80
